createdAt,value
2023-02-14T00:00:16.598Z,103513.38
2023-02-14T00:02:20.114Z,103510.78
2023-02-14T00:04:23.511Z,103522.03
2023-02-14T00:06:29.902Z,103508.19
2023-02-14T00:08:33.381Z,103518.56
2023-02-14T00:10:36.648Z,103514.25
2023-02-14T00:12:39.913Z,103519.44
2023-02-14T00:15:00.398Z,103519.44
2023-02-14T00:17:03.833Z,103521.19
2023-02-14T00:19:07.078Z,103526.38
2023-02-14T00:21:10.266Z,103522.91
2023-02-14T00:23:15.047Z,103526.38
2023-02-14T00:25:18.478Z,103515.97
2023-02-14T00:27:21.717Z,103526.38
2023-02-14T00:29:27.725Z,103517.72
2023-02-14T00:31:31.168Z,103520.31
2023-02-14T00:33:34.472Z,103522.91
2023-02-14T00:35:38.983Z,103514.25
2023-02-14T00:37:42.297Z,103515.09
2023-02-14T00:39:46.934Z,103524.63
2023-02-14T00:41:50.120Z,103517.72
2023-02-14T00:43:54.578Z,103510.78
2023-02-14T00:45:58.066Z,103509.91
2023-02-14T00:48:01.363Z,103507.34
2023-02-14T00:50:05.146Z,103507.34
2023-02-14T00:52:08.430Z,103510.81
2023-02-14T00:54:11.628Z,103516.88
2023-02-14T00:56:17.272Z,103513.38
2023-02-14T00:58:20.512Z,103507.31
2023-02-14T01:00:24.316Z,103510.78
2023-02-14T01:02:32.226Z,103502.13
2023-02-14T01:04:35.660Z,103500.41
2023-02-14T01:06:39.110Z,103495.19
2023-02-14T01:08:42.563Z,103498.66
2023-02-14T01:10:46.057Z,103496.94
2023-02-14T01:12:50.729Z,103488.28
2023-02-14T01:14:54.014Z,103490.00
2023-02-14T01:16:57.156Z,103492.59
2023-02-14T01:19:02.083Z,103488.28
2023-02-14T01:21:16.744Z,103483.06
2023-02-14T01:24:14.331Z,103489.13
2023-02-14T01:27:30.571Z,103483.94
2023-02-14T01:29:53.794Z,103477.88
2023-02-14T01:31:57.096Z,103480.47
2023-02-14T01:34:01.976Z,103483.94
2023-02-14T01:36:05.861Z,103483.91
2023-02-14T01:38:09.168Z,103490.03
2023-02-14T01:40:14.614Z,103488.28
2023-02-14T01:42:19.668Z,103482.22
2023-02-14T01:45:03.322Z,103482.22
2023-02-14T01:47:11.428Z,103488.28
2023-02-14T01:49:18.387Z,103481.31
2023-02-14T01:51:22.543Z,103484.78
2023-02-14T01:53:30.022Z,103473.53
2023-02-14T01:55:38.019Z,103470.06
2023-02-14T01:57:46.231Z,103466.63
2023-02-14T01:59:54.134Z,103476.16
2023-02-14T02:01:59.133Z,103469.22
2023-02-14T02:04:08.832Z,103470.09
2023-02-14T02:06:16.416Z,103467.47
2023-02-14T02:08:20.636Z,103465.75
2023-02-14T02:10:24.408Z,103462.28
2023-02-14T02:12:30.811Z,103467.47
2023-02-14T02:14:36.070Z,103462.28
2023-02-14T02:16:55.671Z,103461.41
2023-02-14T02:19:22.813Z,103453.59
2023-02-14T02:21:59.884Z,103457.06
2023-02-14T02:24:16.781Z,103450.13
2023-02-14T02:26:50.506Z,103453.59
2023-02-14T02:29:21.881Z,103451.00
2023-02-14T02:31:44.390Z,103452.75
2023-02-14T02:34:17.498Z,103449.28
2023-02-14T02:36:48.851Z,103444.09
2023-02-14T02:39:17.169Z,103447.56
2023-02-14T02:41:32.284Z,103446.69
2023-02-14T02:43:45.292Z,103441.50
2023-02-14T02:46:09.526Z,103442.38
2023-02-14T02:48:23.182Z,103449.31
2023-02-14T02:50:48.721Z,103450.16
2023-02-14T02:53:03.314Z,103445.84
2023-02-14T02:55:14.509Z,103444.09
2023-02-14T02:57:22.775Z,103446.69
2023-02-14T02:59:30.255Z,103440.63
2023-02-14T03:01:39.353Z,103448.44
2023-02-14T03:04:04.965Z,103441.50
2023-02-14T03:06:08.649Z,103441.50
2023-02-14T03:08:13.306Z,103446.69
2023-02-14T03:10:18.810Z,103441.50
2023-02-14T03:12:41.408Z,103443.22
2023-02-14T03:14:51.363Z,103441.47
2023-02-14T03:17:06.975Z,103435.44
2023-02-14T03:19:59.865Z,103435.41
2023-02-14T03:22:15.702Z,103436.28
2023-02-14T03:24:28.673Z,103431.94
2023-02-14T03:26:39.100Z,103428.50
2023-02-14T03:28:48.427Z,103431.94
2023-02-14T03:31:00.696Z,103431.94
2023-02-14T03:33:07.728Z,103438.88
2023-02-14T03:35:20.841Z,103439.75
2023-02-14T03:37:30.148Z,103435.44
2023-02-14T03:39:42.371Z,103435.41
2023-02-14T03:41:50.292Z,103433.69
2023-02-14T03:43:57.760Z,103427.63
2023-02-14T03:46:07.847Z,103432.81
2023-02-14T03:48:13.987Z,103431.09
2023-02-14T03:50:20.102Z,103428.50
2023-02-14T03:52:26.332Z,103429.34
2023-02-14T03:54:32.535Z,103434.53
2023-02-14T03:56:41.236Z,103422.44
2023-02-14T03:58:48.977Z,103418.97
2023-02-14T04:00:58.261Z,103420.69
2023-02-14T04:03:05.965Z,103413.78
2023-02-14T04:05:14.312Z,103415.50
2023-02-14T04:07:19.844Z,103404.25
2023-02-14T04:09:22.988Z,103419.84
2023-02-14T04:11:26.226Z,103412.03
2023-02-14T04:13:30.849Z,103406.84
2023-02-14T04:15:34.180Z,103411.19
2023-02-14T04:17:55.052Z,103409.44
2023-02-14T04:19:58.279Z,103405.13
2023-02-14T04:22:01.443Z,103406.84
2023-02-14T04:24:04.936Z,103402.53
2023-02-14T04:26:08.165Z,103402.53
2023-02-14T04:28:11.312Z,103402.53
2023-02-14T04:30:18.085Z,103400.78
2023-02-14T04:32:23.348Z,103401.66
2023-02-14T04:34:26.792Z,103399.06
2023-02-14T04:36:29.972Z,103394.72
2023-02-14T04:38:33.928Z,103394.72
2023-02-14T04:40:37.173Z,103397.34
2023-02-14T04:42:40.348Z,103395.59
2023-02-14T04:44:43.604Z,103398.19
2023-02-14T04:46:48.188Z,103393.00
2023-02-14T04:48:51.431Z,103396.47
2023-02-14T04:50:55.340Z,103394.75
2023-02-14T04:52:58.529Z,103390.41
2023-02-14T04:55:01.642Z,103386.94
2023-02-14T04:57:04.897Z,103386.94
2023-02-14T04:59:08.134Z,103394.75
2023-02-14T05:01:11.277Z,103389.56
2023-02-14T05:03:15.839Z,103394.75
2023-02-14T05:05:19.332Z,103384.38
2023-02-14T05:07:22.494Z,103386.94
2023-02-14T05:09:25.776Z,103393.00
2023-02-14T05:11:29.367Z,103380.91
2023-02-14T05:13:33.056Z,103387.81
2023-02-14T05:15:38.392Z,103375.69
2023-02-14T05:17:41.985Z,103386.94
2023-02-14T05:19:46.588Z,103393.00
2023-02-14T05:21:49.786Z,103386.09
2023-02-14T05:23:52.914Z,103393.88
2023-02-14T05:25:56.136Z,103387.78
2023-02-14T05:27:59.565Z,103384.34
2023-02-14T05:30:02.909Z,103386.94
2023-02-14T05:32:06.560Z,103386.06
2023-02-14T05:34:09.782Z,103387.81
2023-02-14T05:36:14.506Z,103392.13
2023-02-14T05:38:17.937Z,103384.34
2023-02-14T05:40:21.374Z,103379.16
2023-02-14T05:42:24.594Z,103382.63
2023-02-14T05:44:27.913Z,103379.16
2023-02-14T05:46:31.080Z,103376.56
2023-02-14T05:48:35.088Z,103380.88
2023-02-14T05:50:38.336Z,103377.44
2023-02-14T05:52:43.395Z,103380.88
2023-02-14T05:54:46.596Z,103380.03
2023-02-14T05:56:49.787Z,103382.63
2023-02-14T05:58:53.036Z,103375.69
2023-02-14T06:00:57.853Z,103373.97
2023-02-14T06:03:01.312Z,103373.09
2023-02-14T06:05:04.443Z,103373.97
2023-02-14T06:07:07.599Z,103368.75
2023-02-14T06:09:12.182Z,103367.91
2023-02-14T06:11:15.343Z,103367.91
2023-02-14T06:13:18.526Z,103375.69
2023-02-14T06:15:22.463Z,103373.94
2023-02-14T06:17:25.664Z,103367.03
2023-02-14T06:19:28.973Z,103373.09
2023-02-14T06:21:32.447Z,103375.69
2023-02-14T06:23:35.675Z,103374.81
2023-02-14T06:25:40.207Z,103372.22
2023-02-14T06:27:43.453Z,103372.22
2023-02-14T06:29:46.809Z,103379.16
2023-02-14T06:31:50.206Z,103380.88
2023-02-14T06:33:54.019Z,103382.59
2023-02-14T06:35:57.220Z,103380.88
2023-02-14T06:38:00.374Z,103381.75
2023-02-14T06:40:03.919Z,103384.34
2023-02-14T06:42:08.722Z,103380.00
2023-02-14T06:44:11.996Z,103380.88
2023-02-14T06:46:15.333Z,103389.53
2023-02-14T06:48:18.548Z,103389.53
2023-02-14T06:50:21.731Z,103386.09
2023-02-14T06:52:24.910Z,103391.28
2023-02-14T06:54:28.126Z,103393.03
2023-02-14T06:56:31.293Z,103390.41
2023-02-14T06:58:36.235Z,103393.03
2023-02-14T07:00:39.825Z,103391.25
2023-02-14T07:02:43.528Z,103394.72
2023-02-14T07:04:46.868Z,103394.72
2023-02-14T07:06:50.064Z,103394.72
2023-02-14T07:08:53.332Z,103394.72
2023-02-14T07:10:58.236Z,103395.59
2023-02-14T07:13:02.035Z,103396.47
2023-02-14T07:15:07.421Z,103398.19
2023-02-14T07:17:10.739Z,103394.72
2023-02-14T07:19:14.205Z,103389.53
2023-02-14T07:21:17.563Z,103386.94
2023-02-14T07:23:20.855Z,103386.06
2023-02-14T07:25:23.996Z,103385.19
2023-02-14T07:27:27.369Z,103379.13
2023-02-14T07:29:30.565Z,103380.00
2023-02-14T07:31:35.196Z,103384.34
2023-02-14T07:33:38.497Z,103375.66
2023-02-14T07:35:41.708Z,103387.75
2023-02-14T07:37:44.879Z,103389.50
2023-02-14T07:39:48.135Z,103384.28
2023-02-14T07:41:51.577Z,103385.16
2023-02-14T07:43:56.093Z,103381.69
2023-02-14T07:46:00.836Z,103387.75
2023-02-14T07:48:05.993Z,103389.47
2023-02-14T07:50:09.716Z,103377.34
2023-02-14T07:52:12.909Z,103374.69
2023-02-14T07:54:16.066Z,103373.81
2023-02-14T07:56:19.277Z,103380.75
2023-02-14T07:58:22.559Z,103377.28
2023-02-14T08:00:25.794Z,103382.47
2023-02-14T08:02:29.234Z,103372.09
2023-02-14T08:04:34.140Z,103383.34
2023-02-14T08:06:37.377Z,103379.00
2023-02-14T08:08:40.840Z,103378.97
2023-02-14T08:10:44.078Z,103373.72
2023-02-14T08:13:01.406Z,103380.66
2023-02-14T08:15:18.911Z,103371.97
2023-02-14T08:17:22.057Z,103374.53
2023-02-14T08:19:25.301Z,103371.94
2023-02-14T08:21:29.989Z,103372.75
2023-02-14T08:23:33.373Z,103367.50
2023-02-14T08:25:36.584Z,103370.97
2023-02-14T08:27:40.237Z,103364.88
2023-02-14T08:29:43.359Z,103363.16
2023-02-14T08:31:47.435Z,103359.69
2023-02-14T08:33:50.764Z,103365.75
2023-02-14T08:35:54.129Z,103362.28
2023-02-14T08:37:58.751Z,103363.16
2023-02-14T08:40:02.041Z,103366.63
2023-02-14T08:42:05.549Z,103368.38
2023-02-14T08:44:08.798Z,103365.75
2023-02-14T08:46:13.104Z,103378.78
2023-02-14T08:48:16.396Z,103369.22
2023-02-14T08:50:20.503Z,103376.16
2023-02-14T08:52:23.732Z,103376.97
2023-02-14T08:54:28.392Z,103370.91
2023-02-14T08:56:31.593Z,103369.16
2023-02-14T08:58:35.901Z,103371.75
2023-02-14T09:00:39.748Z,103367.41
2023-02-14T09:02:43.169Z,103368.25
2023-02-14T09:04:46.661Z,103367.38
2023-02-14T09:06:49.900Z,103363.03
2023-02-14T09:08:55.150Z,103363.88
2023-02-14T09:11:00.213Z,103361.25
2023-02-14T09:13:04.248Z,103357.75
2023-02-14T09:15:08.324Z,103357.69
2023-02-14T09:17:12.991Z,103353.34
2023-02-14T09:19:16.125Z,103359.41
2023-02-14T09:21:21.425Z,103355.91
2023-02-14T09:23:24.902Z,103353.28
2023-02-14T09:25:28.130Z,103348.03
2023-02-14T09:27:32.769Z,103352.34
2023-02-14T09:29:36.040Z,103356.63
2023-02-14T09:31:39.929Z,103354.84
2023-02-14T09:33:44.491Z,103348.75
2023-02-14T09:35:47.664Z,103355.66
2023-02-14T09:38:08.253Z,103351.31
2023-02-14T09:40:14.792Z,103353.00
2023-02-14T09:42:41.163Z,103346.03
2023-02-14T09:44:53.980Z,103346.81
2023-02-14T09:47:02.396Z,103346.78
2023-02-14T09:49:12.376Z,103342.41
2023-02-14T09:51:22.809Z,103338.03
2023-02-14T09:53:30.485Z,103336.25
2023-02-14T09:55:40.548Z,103342.28
2023-02-14T09:58:05.773Z,103340.47
2023-02-14T10:00:19.014Z,103336.06
2023-02-14T10:02:40.564Z,103330.78
2023-02-14T10:04:56.947Z,103332.50
2023-02-14T10:07:09.393Z,103335.97
2023-02-14T10:09:23.645Z,103338.56
2023-02-14T10:11:26.952Z,103335.09
2023-02-14T10:13:36.685Z,103332.47
2023-02-14T10:15:44.141Z,103327.25
2023-02-14T10:17:52.548Z,103328.09
2023-02-14T10:20:01.002Z,103330.69
2023-02-14T10:22:09.182Z,103331.50
2023-02-14T10:24:17.817Z,103334.88
2023-02-14T10:26:27.313Z,103328.75
2023-02-14T10:28:38.381Z,103325.22
2023-02-14T10:30:51.089Z,103322.56
2023-02-14T10:33:04.485Z,103322.47
2023-02-14T10:35:17.518Z,103323.28
2023-02-14T10:37:33.798Z,103313.66
2023-02-14T10:39:59.826Z,103322.31
2023-02-14T10:42:12.991Z,103325.75
2023-02-14T10:44:31.702Z,103323.97
2023-02-14T10:46:41.985Z,103327.38
2023-02-14T10:48:53.104Z,103316.00
2023-02-14T10:51:03.109Z,103318.50
2023-02-14T10:53:17.147Z,103308.00
2023-02-14T10:55:32.370Z,103307.06
2023-02-14T10:57:39.542Z,103300.00
2023-02-14T10:59:50.710Z,103307.69
2023-02-14T11:01:56.340Z,103305.88
2023-02-14T11:04:06.626Z,103306.66
2023-02-14T11:06:11.402Z,103313.56
2023-02-14T11:08:23.414Z,103315.25
2023-02-14T11:10:31.190Z,103299.50
2023-02-14T11:12:39.372Z,103300.31
2023-02-14T11:14:43.710Z,103290.63
2023-02-14T11:16:51.863Z,103284.47
2023-02-14T11:19:10.395Z,103293.09
2023-02-14T11:21:17.807Z,103289.53
2023-02-14T11:23:22.687Z,103282.59
2023-02-14T11:25:28.133Z,103281.69
2023-02-14T11:27:32.483Z,103275.56
2023-02-14T11:29:44.965Z,103270.34
2023-02-14T11:31:50.200Z,103267.59
2023-02-14T11:33:54.451Z,103271.00
2023-02-14T11:35:59.260Z,103258.72
2023-02-14T11:38:05.154Z,103257.72
2023-02-14T11:40:24.975Z,103254.19
2023-02-14T11:42:38.931Z,103248.94
2023-02-14T11:44:58.640Z,103246.28
2023-02-14T11:47:26.977Z,103247.94
2023-02-14T11:49:33.360Z,103246.09
2023-02-14T11:51:40.319Z,103236.41
2023-02-14T11:53:47.445Z,103237.16
2023-02-14T11:55:56.070Z,103234.44
2023-02-14T11:58:00.073Z,103229.94
2023-02-14T12:00:13.319Z,103227.22
2023-02-14T12:02:28.315Z,103222.81
2023-02-14T12:04:45.648Z,103216.66
2023-02-14T12:06:49.829Z,103226.09
2023-02-14T12:08:53.242Z,103218.09
2023-02-14T12:11:03.813Z,103212.69
2023-02-14T12:13:25.718Z,103214.31
2023-02-14T12:15:37.025Z,103213.34
2023-02-14T12:17:46.916Z,103208.03
2023-02-14T12:19:53.110Z,103206.25
2023-02-14T12:22:01.299Z,103200.84
2023-02-14T12:24:13.770Z,103201.59
2023-02-14T12:26:27.493Z,103190.13
2023-02-14T12:28:38.556Z,103200.47
2023-02-14T12:30:42.550Z,103192.56
2023-02-14T12:32:50.535Z,103194.22
2023-02-14T12:34:59.870Z,103188.97
2023-02-14T12:37:30.647Z,103188.00
2023-02-14T12:39:39.337Z,103192.28
2023-02-14T12:41:50.447Z,103186.97
2023-02-14T12:43:56.041Z,103195.66
2023-02-14T12:46:12.927Z,103188.63
2023-02-14T12:48:28.899Z,103182.41
2023-02-14T12:50:43.300Z,103171.84
2023-02-14T12:53:26.557Z,103170.03
2023-02-14T12:55:42.495Z,103175.06
2023-02-14T12:57:52.400Z,103166.22
2023-02-14T13:00:04.602Z,103167.88
2023-02-14T13:02:56.257Z,103153.78
2023-02-14T13:05:06.971Z,103151.03
2023-02-14T13:07:20.131Z,103143.91
2023-02-14T13:09:36.102Z,103146.38
2023-02-14T13:11:48.511Z,103145.38
2023-02-14T13:14:04.572Z,103142.69
2023-02-14T13:16:16.727Z,103135.63
2023-02-14T13:18:35.614Z,103135.50
2023-02-14T13:20:50.446Z,103134.34
2023-02-14T13:22:56.909Z,103122.44
2023-02-14T13:25:04.790Z,103123.47
2023-02-14T13:27:13.674Z,103127.13
2023-02-14T13:29:20.640Z,103116.72
2023-02-14T13:31:24.559Z,103115.97
2023-02-14T13:33:34.908Z,103109.44
2023-02-14T13:35:39.123Z,103107.22
2023-02-14T13:37:51.222Z,103101.38
2023-02-14T13:39:57.831Z,103098.38
2023-02-14T13:42:01.597Z,103089.69
2023-02-14T13:44:05.505Z,103095.22
2023-02-14T13:46:09.016Z,103095.31
2023-02-14T13:48:14.430Z,103099.66
2023-02-14T13:50:22.904Z,103093.59
2023-02-14T13:52:46.118Z,103083.19
2023-02-14T13:54:50.116Z,103087.47
2023-02-14T13:56:53.709Z,103086.16
2023-02-14T13:59:00.366Z,103088.41
2023-02-14T14:01:33.058Z,103089.03
2023-02-14T14:03:57.687Z,103081.94
2023-02-14T14:06:08.328Z,103084.97
2023-02-14T14:08:42.403Z,103087.66
2023-02-14T14:10:47.034Z,103091.19
2023-02-14T14:12:52.202Z,103077.47
2023-02-14T14:15:13.237Z,103088.34
2023-02-14T14:17:21.895Z,103077.22
2023-02-14T14:19:39.882Z,103075.53
2023-02-14T14:21:44.813Z,103077.22
2023-02-14T14:24:06.236Z,103078.94
2023-02-14T14:26:35.264Z,103077.94
2023-02-14T14:28:38.756Z,103076.81
2023-02-14T14:30:45.613Z,103078.97
2023-02-14T14:32:49.042Z,103064.44
2023-02-14T14:34:54.060Z,103065.78
2023-02-14T14:37:04.154Z,103068.88
2023-02-14T14:39:11.243Z,103069.34
2023-02-14T14:41:14.695Z,103066.53
2023-02-14T14:43:23.100Z,103068.19
2023-02-14T14:45:28.327Z,103064.94
2023-02-14T14:47:38.812Z,103062.75
2023-02-14T14:49:42.280Z,103062.47
2023-02-14T14:51:46.607Z,103055.97
2023-02-14T14:53:53.808Z,103058.28
2023-02-14T14:55:59.310Z,103062.38
2023-02-14T14:58:05.011Z,103056.84
2023-02-14T15:00:28.674Z,103060.88
2023-02-14T15:02:32.159Z,103053.47
2023-02-14T15:04:36.583Z,103046.81
2023-02-14T15:06:41.033Z,103045.19
2023-02-14T15:08:44.676Z,103043.38
2023-02-14T15:10:52.411Z,103043.28
2023-02-14T15:13:17.057Z,103040.56
2023-02-14T15:15:20.554Z,103033.53
2023-02-14T15:17:27.737Z,103043.28
2023-02-14T15:19:37.140Z,103040.09
2023-02-14T15:21:44.635Z,103032.47
2023-02-14T15:23:48.927Z,103030.84
2023-02-14T15:25:53.706Z,103025.75
2023-02-14T15:27:58.597Z,103024.19
2023-02-14T15:30:06.713Z,103027.03
2023-02-14T15:32:12.005Z,103025.47
2023-02-14T15:34:15.864Z,103026.41
2023-02-14T15:36:25.259Z,103022.22
2023-02-14T15:38:29.403Z,103011.88
2023-02-14T15:40:36.387Z,103018.13
2023-02-14T15:42:42.374Z,103014.75
2023-02-14T15:44:47.104Z,103013.19
2023-02-14T15:46:55.337Z,103019.47
2023-02-14T15:49:01.595Z,103019.66
2023-02-14T15:51:06.468Z,103016.34
2023-02-14T15:53:27.774Z,103014.75
2023-02-14T15:55:33.433Z,103017.63
2023-02-14T15:57:38.431Z,103013.47
2023-02-14T15:59:43.568Z,103013.78
2023-02-14T16:01:54.500Z,103015.75
2023-02-14T16:04:00.706Z,103004.69
2023-02-14T16:06:05.304Z,103000.63
2023-02-14T16:08:27.788Z,103004.50
2023-02-14T16:10:32.792Z,103004.91
2023-02-14T16:12:38.190Z,102998.25
2023-02-14T16:14:45.764Z,102988.94
2023-02-14T16:17:02.026Z,102998.81
2023-02-14T16:19:06.629Z,102999.97
2023-02-14T16:21:15.566Z,102997.59
2023-02-14T16:23:23.163Z,102991.72
2023-02-14T16:25:26.626Z,102987.63
2023-02-14T16:27:30.019Z,102993.94
2023-02-14T16:29:33.907Z,102988.94
2023-02-14T16:31:39.917Z,102993.59
2023-02-14T16:33:45.029Z,102985.97
2023-02-14T16:35:49.378Z,102987.94
2023-02-14T16:37:53.560Z,102989.94
2023-02-14T16:39:57.845Z,102984.94
2023-02-14T16:42:01.360Z,102986.91
2023-02-14T16:44:07.043Z,102991.47
2023-02-14T16:46:12.684Z,102987.31
2023-02-14T16:48:16.960Z,102984.03
2023-02-14T16:50:22.834Z,102992.00
2023-02-14T16:52:28.286Z,102995.63
2023-02-14T16:54:32.577Z,102991.44
2023-02-14T16:56:40.674Z,102994.19
2023-02-14T16:58:44.543Z,102998.66
2023-02-14T17:00:47.900Z,102996.16
2023-02-14T17:02:51.551Z,102990.22
2023-02-14T17:04:55.370Z,102998.13
2023-02-14T17:07:05.876Z,102993.03
2023-02-14T17:09:13.741Z,102988.78
2023-02-14T17:11:17.320Z,102992.34
2023-02-14T17:13:25.241Z,102988.09
2023-02-14T17:15:30.224Z,102989.06
2023-02-14T17:17:35.106Z,102990.88
2023-02-14T17:19:38.831Z,102998.78
2023-02-14T17:21:43.915Z,102988.44
2023-02-14T17:23:48.946Z,102982.47
2023-02-14T17:25:52.519Z,102986.03
2023-02-14T17:27:56.532Z,102982.66
2023-02-14T17:29:59.980Z,102987.06
2023-02-14T17:32:07.165Z,102989.75
2023-02-14T17:34:11.138Z,102985.50
2023-02-14T17:36:15.790Z,102992.53
2023-02-14T17:38:21.627Z,102996.06
2023-02-14T17:40:26.456Z,102989.16
2023-02-14T17:42:31.800Z,102992.69
2023-02-14T17:44:36.031Z,102990.19
2023-02-14T17:46:39.622Z,102991.13
2023-02-14T17:48:45.514Z,102989.44
2023-02-14T17:50:48.945Z,102986.91
2023-02-14T17:52:55.522Z,102992.16
2023-02-14T17:54:59.112Z,102981.78
2023-02-14T17:57:04.660Z,102984.44
2023-02-14T17:59:08.014Z,102982.78
2023-02-14T18:01:13.265Z,102982.81
2023-02-14T18:03:20.374Z,102975.91
2023-02-14T18:05:24.213Z,102987.22
2023-02-14T18:07:27.689Z,102981.19
2023-02-14T18:09:31.291Z,102982.09
2023-02-14T18:11:34.730Z,102985.59
2023-02-14T18:13:40.080Z,102970.88
2023-02-14T18:15:43.499Z,102976.16
2023-02-14T18:17:50.769Z,102971.84
2023-02-14T18:19:54.263Z,102967.53
2023-02-14T18:21:58.169Z,102968.44
2023-02-14T18:24:03.091Z,102978.00
2023-02-14T18:26:08.455Z,102970.22
2023-02-14T18:28:11.846Z,102965.91
2023-02-14T18:30:17.236Z,102972.03
2023-02-14T18:32:20.784Z,102967.78
2023-02-14T18:34:24.441Z,102973.00
2023-02-14T18:36:28.535Z,102966.09
2023-02-14T18:38:31.874Z,102960.06
2023-02-14T18:40:35.784Z,102954.03
2023-02-14T18:42:39.206Z,102956.66
2023-02-14T18:44:42.585Z,102954.09
2023-02-14T18:46:47.391Z,102951.56
2023-02-14T18:48:51.517Z,102946.38
2023-02-14T18:50:54.892Z,102943.78
2023-02-14T18:52:58.301Z,102950.72
2023-02-14T18:55:01.713Z,102948.97
2023-02-14T18:57:05.164Z,102940.22
2023-02-14T18:59:10.421Z,102943.66
2023-02-14T19:01:15.658Z,102948.81
2023-02-14T19:03:20.504Z,102940.97
2023-02-14T19:05:26.197Z,102940.03
2023-02-14T19:07:29.709Z,102927.81
2023-02-14T19:09:39.063Z,102939.91
2023-02-14T19:11:42.752Z,102941.59
2023-02-14T19:13:46.857Z,102937.22
2023-02-14T19:15:50.961Z,102945.84
2023-02-14T19:17:54.814Z,102942.38
2023-02-14T19:19:59.868Z,102944.09
2023-02-14T19:22:03.472Z,102943.19
2023-02-14T19:24:08.734Z,102942.31
2023-02-14T19:26:14.684Z,102944.94
2023-02-14T19:28:19.371Z,102940.59
2023-02-14T19:30:22.918Z,102942.34
2023-02-14T19:32:26.766Z,102940.63
2023-02-14T19:34:31.610Z,102941.47
2023-02-14T19:36:37.651Z,102944.94
2023-02-14T19:38:42.703Z,102944.94
2023-02-14T19:40:46.294Z,102947.50
2023-02-14T19:42:50.288Z,102944.03
2023-02-14T19:44:54.217Z,102944.03
2023-02-14T19:47:00.184Z,102940.56
2023-02-14T19:49:04.399Z,102950.13
2023-02-14T19:51:08.380Z,102941.53
2023-02-14T19:53:13.220Z,102944.13
2023-02-14T19:55:23.474Z,102938.13
2023-02-14T19:57:27.415Z,102940.81
2023-02-14T19:59:32.592Z,102945.25
2023-02-14T20:01:38.055Z,102949.66
2023-02-14T20:03:42.193Z,102940.19
2023-02-14T20:05:45.581Z,102938.56
2023-02-14T20:07:52.023Z,102940.34
2023-02-14T20:09:56.811Z,102934.34
2023-02-14T20:12:01.529Z,102938.69
2023-02-14T20:14:05.407Z,102931.81
2023-02-14T20:16:11.941Z,102937.03
2023-02-14T20:18:16.195Z,102935.38
2023-02-14T20:20:21.578Z,102934.53
2023-02-14T20:22:25.765Z,102920.72
2023-02-14T20:24:30.650Z,102915.53
2023-02-14T20:26:37.268Z,102913.84
2023-02-14T20:28:40.692Z,102911.25
2023-02-14T20:30:44.192Z,102912.16
2023-02-14T20:32:47.626Z,102907.81
2023-02-14T20:34:51.960Z,102916.47
2023-02-14T20:36:56.069Z,102912.16
2023-02-14T20:39:00.722Z,102911.31
2023-02-14T20:41:05.736Z,102913.09
2023-02-14T20:43:10.680Z,102909.66
2023-02-14T20:45:14.065Z,102911.41
2023-02-14T20:47:18.249Z,102902.78
2023-02-14T20:49:23.322Z,102900.22
2023-02-14T20:51:27.403Z,102902.84
2023-02-14T20:53:30.753Z,102902.00
2023-02-14T20:55:34.143Z,102902.06
2023-02-14T20:57:38.606Z,102902.97
2023-02-14T20:59:45.367Z,102897.78
2023-02-14T21:01:48.755Z,102899.56
2023-02-14T21:03:53.588Z,102893.50
2023-02-14T21:05:57.557Z,102896.13
2023-02-14T21:08:00.985Z,102890.09
2023-02-14T21:10:04.512Z,102890.16
2023-02-14T21:12:08.842Z,102884.13
2023-02-14T21:14:12.295Z,102889.34
2023-02-14T21:16:18.739Z,102891.09
2023-02-14T21:18:22.582Z,102894.56
2023-02-14T21:20:25.961Z,102891.97
2023-02-14T21:22:29.381Z,102889.41
2023-02-14T21:24:32.878Z,102889.41
2023-02-14T21:26:36.621Z,102894.59
2023-02-14T21:28:40.006Z,102896.34
2023-02-14T21:30:43.522Z,102892.94
2023-02-14T21:32:48.376Z,102897.28
2023-02-14T21:34:51.812Z,102886.06
2023-02-14T21:36:56.402Z,102889.53
2023-02-14T21:39:01.144Z,102893.00
2023-02-14T21:41:07.031Z,102894.78
2023-02-14T21:43:10.489Z,102893.09
2023-02-14T21:45:46.628Z,102887.06
2023-02-14T21:48:05.247Z,102884.47
2023-02-14T21:50:41.755Z,102881.03
2023-02-14T21:52:45.270Z,102881.06
2023-02-14T21:54:48.959Z,102886.28
2023-02-14T21:56:52.623Z,102877.66
2023-02-14T21:58:57.100Z,102877.66
2023-02-14T22:01:00.940Z,102877.69
2023-02-14T22:03:06.139Z,102875.09
2023-02-14T22:05:09.790Z,102869.94
2023-02-14T22:07:13.275Z,102872.53
2023-02-14T22:09:18.755Z,102870.84
2023-02-14T22:11:23.116Z,102870.00
2023-02-14T22:13:27.033Z,102863.94
2023-02-14T22:15:30.535Z,102863.94
2023-02-14T22:17:34.436Z,102851.00
2023-02-14T22:19:39.323Z,102854.47
2023-02-14T22:21:44.324Z,102856.19
2023-02-14T22:23:48.204Z,102856.19
2023-02-14T22:25:51.657Z,102847.59
2023-02-14T22:27:55.270Z,102847.59
2023-02-14T22:29:58.717Z,102845.00
2023-02-14T22:32:02.370Z,102836.38
2023-02-14T22:34:06.225Z,102839.84
2023-02-14T22:36:11.685Z,102838.09
2023-02-14T22:38:15.236Z,102835.53
2023-02-14T22:40:19.021Z,102829.47
2023-02-14T22:42:22.501Z,102836.38
2023-02-14T22:44:26.109Z,102839.84
2023-02-14T22:46:30.097Z,102832.94
2023-02-14T22:48:34.485Z,102831.22
2023-02-14T22:50:38.006Z,102838.97
2023-02-14T22:52:42.821Z,102835.53
2023-02-14T22:54:46.279Z,102834.66
2023-02-14T22:56:51.624Z,102829.47
2023-02-14T22:58:56.646Z,102827.75
2023-02-14T23:01:00.110Z,102831.19
2023-02-14T23:03:03.687Z,102831.19
2023-02-14T23:05:07.598Z,102825.16
2023-02-14T23:07:12.066Z,102833.78
2023-02-14T23:09:17.683Z,102817.38
2023-02-14T23:11:22.944Z,102828.59
2023-02-14T23:13:49.300Z,102820.81
2023-02-14T23:16:11.836Z,102821.69
2023-02-14T23:18:32.798Z,102820.84
2023-02-14T23:20:53.899Z,102831.19
2023-02-14T23:22:57.364Z,102832.94
2023-02-14T23:25:04.536Z,102824.28
2023-02-14T23:27:08.919Z,102827.75
2023-02-14T23:29:12.337Z,102832.06
2023-02-14T23:31:15.945Z,102831.22
2023-02-14T23:33:19.886Z,102827.75
2023-02-14T23:35:23.364Z,102826.91
2023-02-14T23:37:26.983Z,102826.94
2023-02-14T23:39:32.673Z,102818.31
2023-02-14T23:41:48.809Z,102819.16
2023-02-14T23:43:52.277Z,102808.78
2023-02-14T23:45:55.802Z,102822.56
2023-02-14T23:48:03.316Z,102815.66
2023-02-14T23:50:07.824Z,102816.53
2023-02-14T23:52:13.235Z,102812.22
2023-02-14T23:54:17.175Z,102814.78
2023-02-14T23:56:20.848Z,102807.03
2023-02-14T23:58:25.750Z,102805.28
